sensor_id;sensor_type;location;lat;lon;timestamp;pressure;altitude;pressure_sealevel;temperature
44429;BMP180;30134;47.866;-4.222;2022-12-11T00:01:10;100957.00;;;21.00
44429;BMP180;30134;47.866;-4.222;2022-12-11T00:03:36;100952.00;;;21.00
44429;BMP180;30134;47.866;-4.222;2022-12-11T00:06:07;100947.00;;;21.00
44429;BMP180;30134;47.866;-4.222;2022-12-11T00:08:33;100940.00;;;21.00
44429;BMP180;30134;47.866;-4.222;2022-12-11T00:10:59;100938.00;;;21.00
44429;BMP180;30134;47.866;-4.222;2022-12-11T00:13:25;100931.00;;;21.00
44429;BMP180;30134;47.866;-4.222;2022-12-11T00:15:51;100926.00;;;21.00
44429;BMP180;30134;47.866;-4.222;2022-12-11T00:18:16;100930.00;;;21.00
44429;BMP180;30134;47.866;-4.222;2022-12-11T00:20:42;100922.00;;;21.00
44429;BMP180;30134;47.866;-4.222;2022-12-11T00:23:08;100912.00;;;21.00
44429;BMP180;30134;47.866;-4.222;2022-12-11T00:25:43;100919.00;;;21.00
44429;BMP180;30134;47.866;-4.222;2022-12-11T00:28:13;100912.00;;;21.00
44429;BMP180;30134;47.866;-4.222;2022-12-11T00:30:42;100913.00;;;21.00
44429;BMP180;30134;47.866;-4.222;2022-12-11T00:33:09;100910.00;;;21.00
44429;BMP180;30134;47.866;-4.222;2022-12-11T00:35:46;100913.00;;;21.00
44429;BMP180;30134;47.866;-4.222;2022-12-11T00:38:17;100918.00;;;21.00
44429;BMP180;30134;47.866;-4.222;2022-12-11T00:40:43;100913.00;;;21.00
44429;BMP180;30134;47.866;-4.222;2022-12-11T00:43:09;100918.00;;;21.00
44429;BMP180;30134;47.866;-4.222;2022-12-11T00:45:39;100918.00;;;21.00
44429;BMP180;30134;47.866;-4.222;2022-12-11T00:48:06;100919.00;;;21.00
44429;BMP180;30134;47.866;-4.222;2022-12-11T00:50:32;100924.00;;;21.00
44429;BMP180;30134;47.866;-4.222;2022-12-11T00:52:58;100925.00;;;21.00
44429;BMP180;30134;47.866;-4.222;2022-12-11T00:55:25;100920.00;;;21.00
44429;BMP180;30134;47.866;-4.222;2022-12-11T00:57:54;100923.00;;;21.00
44429;BMP180;30134;47.866;-4.222;2022-12-11T01:00:21;100928.00;;;21.00
44429;BMP180;30134;47.866;-4.222;2022-12-11T01:02:50;100919.00;;;21.00
44429;BMP180;30134;47.866;-4.222;2022-12-11T01:05:16;100919.00;;;21.00
44429;BMP180;30134;47.866;-4.222;2022-12-11T01:07:42;100914.00;;;21.00
44429;BMP180;30134;47.866;-4.222;2022-12-11T01:10:13;100903.00;;;21.00
44429;BMP180;30134;47.866;-4.222;2022-12-11T01:13:02;100911.00;;;20.90
44429;BMP180;30134;47.866;-4.222;2022-12-11T01:15:38;100910.00;;;21.00
44429;BMP180;30134;47.866;-4.222;2022-12-11T01:18:05;100906.00;;;20.90
44429;BMP180;30134;47.866;-4.222;2022-12-11T01:20:31;100901.00;;;20.90
44429;BMP180;30134;47.866;-4.222;2022-12-11T01:23:00;100904.00;;;20.90
44429;BMP180;30134;47.866;-4.222;2022-12-11T01:25:27;100899.00;;;21.00
44429;BMP180;30134;47.866;-4.222;2022-12-11T01:27:54;100899.00;;;20.90
44429;BMP180;30134;47.866;-4.222;2022-12-11T01:30:23;100893.00;;;21.00
44429;BMP180;30134;47.866;-4.222;2022-12-11T01:32:49;100888.00;;;21.00
44429;BMP180;30134;47.866;-4.222;2022-12-11T01:35:16;100887.00;;;21.00
44429;BMP180;30134;47.866;-4.222;2022-12-11T01:37:43;100886.00;;;21.00
44429;BMP180;30134;47.866;-4.222;2022-12-11T01:40:16;100889.00;;;20.90
44429;BMP180;30134;47.866;-4.222;2022-12-11T01:42:42;100893.00;;;20.90
44429;BMP180;30134;47.866;-4.222;2022-12-11T01:45:38;100896.00;;;20.90
44429;BMP180;30134;47.866;-4.222;2022-12-11T01:48:27;100890.00;;;20.90
44429;BMP180;30134;47.866;-4.222;2022-12-11T01:51:00;100887.00;;;20.90
44429;BMP180;30134;47.866;-4.222;2022-12-11T01:53:37;100889.00;;;20.90
44429;BMP180;30134;47.866;-4.222;2022-12-11T01:56:05;100886.00;;;20.90
44429;BMP180;30134;47.866;-4.222;2022-12-11T01:58:42;100887.00;;;20.90
44429;BMP180;30134;47.866;-4.222;2022-12-11T02:01:17;100889.00;;;20.90
44429;BMP180;30134;47.866;-4.222;2022-12-11T02:03:45;100877.00;;;20.90
44429;BMP180;30134;47.866;-4.222;2022-12-11T02:08:59;100887.00;;;20.90
44429;BMP180;30134;47.866;-4.222;2022-12-11T02:11:32;100889.00;;;20.90
44429;BMP180;30134;47.866;-4.222;2022-12-11T02:14:07;100898.00;;;20.90
44429;BMP180;30134;47.866;-4.222;2022-12-11T02:16:41;100905.00;;;20.90
44429;BMP180;30134;47.866;-4.222;2022-12-11T02:21:54;100904.00;;;20.90
44429;BMP180;30134;47.866;-4.222;2022-12-11T02:30:03;100897.00;;;20.90
44429;BMP180;30134;47.866;-4.222;2022-12-11T02:32:42;100897.00;;;20.90
44429;BMP180;30134;47.866;-4.222;2022-12-11T02:35:18;100898.00;;;20.90
44429;BMP180;30134;47.866;-4.222;2022-12-11T02:37:46;100900.00;;;20.90
44429;BMP180;30134;47.866;-4.222;2022-12-11T02:40:14;100898.00;;;20.90
44429;BMP180;30134;47.866;-4.222;2022-12-11T02:42:42;100892.00;;;20.90
44429;BMP180;30134;47.866;-4.222;2022-12-11T02:45:09;100890.00;;;20.90
44429;BMP180;30134;47.866;-4.222;2022-12-11T02:47:35;100879.00;;;20.90
44429;BMP180;30134;47.866;-4.222;2022-12-11T02:50:02;100889.00;;;20.90
44429;BMP180;30134;47.866;-4.222;2022-12-11T02:52:32;100883.00;;;20.90
44429;BMP180;30134;47.866;-4.222;2022-12-11T02:54:58;100888.00;;;20.90
44429;BMP180;30134;47.866;-4.222;2022-12-11T02:58:03;100883.00;;;20.90
44429;BMP180;30134;47.866;-4.222;2022-12-11T03:00:30;100880.00;;;20.90
44429;BMP180;30134;47.866;-4.222;2022-12-11T03:02:56;100876.00;;;20.90
44429;BMP180;30134;47.866;-4.222;2022-12-11T03:05:22;100861.00;;;20.90
44429;BMP180;30134;47.866;-4.222;2022-12-11T03:07:48;100864.00;;;20.90
44429;BMP180;30134;47.866;-4.222;2022-12-11T03:10:16;100868.00;;;20.90
44429;BMP180;30134;47.866;-4.222;2022-12-11T03:12:45;100860.00;;;20.90
44429;BMP180;30134;47.866;-4.222;2022-12-11T03:15:13;100854.00;;;20.90
44429;BMP180;30134;47.866;-4.222;2022-12-11T03:17:55;100846.00;;;20.90
44429;BMP180;30134;47.866;-4.222;2022-12-11T03:20:44;100834.00;;;20.90
44429;BMP180;30134;47.866;-4.222;2022-12-11T03:25:58;100829.00;;;20.90
44429;BMP180;30134;47.866;-4.222;2022-12-11T03:28:44;100834.00;;;20.90
44429;BMP180;30134;47.866;-4.222;2022-12-11T03:31:13;100830.00;;;20.90
44429;BMP180;30134;47.866;-4.222;2022-12-11T03:33:42;100828.00;;;20.80
44429;BMP180;30134;47.866;-4.222;2022-12-11T03:36:22;100822.00;;;20.90
44429;BMP180;30134;47.866;-4.222;2022-12-11T03:38:50;100821.00;;;20.80
44429;BMP180;30134;47.866;-4.222;2022-12-11T03:41:18;100820.00;;;20.80
44429;BMP180;30134;47.866;-4.222;2022-12-11T03:43:45;100820.00;;;20.90
44429;BMP180;30134;47.866;-4.222;2022-12-11T03:46:12;100818.00;;;20.80
44429;BMP180;30134;47.866;-4.222;2022-12-11T03:48:40;100810.00;;;20.80
44429;BMP180;30134;47.866;-4.222;2022-12-11T03:51:08;100813.00;;;20.80
44429;BMP180;30134;47.866;-4.222;2022-12-11T03:53:35;100814.00;;;20.80
44429;BMP180;30134;47.866;-4.222;2022-12-11T03:56:05;100817.00;;;20.80
44429;BMP180;30134;47.866;-4.222;2022-12-11T03:58:31;100820.00;;;20.80
44429;BMP180;30134;47.866;-4.222;2022-12-11T04:00:57;100818.00;;;20.80
44429;BMP180;30134;47.866;-4.222;2022-12-11T04:03:23;100810.00;;;20.80
44429;BMP180;30134;47.866;-4.222;2022-12-11T04:05:53;100812.00;;;20.80
44429;BMP180;30134;47.866;-4.222;2022-12-11T04:08:20;100809.00;;;20.80
44429;BMP180;30134;47.866;-4.222;2022-12-11T04:10:46;100800.00;;;20.80
44429;BMP180;30134;47.866;-4.222;2022-12-11T04:13:13;100802.00;;;20.80
44429;BMP180;30134;47.866;-4.222;2022-12-11T04:15:39;100801.00;;;20.80
44429;BMP180;30134;47.866;-4.222;2022-12-11T04:18:06;100788.00;;;20.80
44429;BMP180;30134;47.866;-4.222;2022-12-11T04:20:53;100793.00;;;20.80
44429;BMP180;30134;47.866;-4.222;2022-12-11T04:23:37;100797.00;;;20.80
44429;BMP180;30134;47.866;-4.222;2022-12-11T04:26:22;100794.00;;;20.80
44429;BMP180;30134;47.866;-4.222;2022-12-11T04:28:48;100802.00;;;20.80
44429;BMP180;30134;47.866;-4.222;2022-12-11T04:31:16;100805.00;;;20.80
44429;BMP180;30134;47.866;-4.222;2022-12-11T04:33:43;100808.00;;;20.80
44429;BMP180;30134;47.866;-4.222;2022-12-11T04:36:10;100800.00;;;20.80
44429;BMP180;30134;47.866;-4.222;2022-12-11T04:38:38;100797.00;;;20.80
44429;BMP180;30134;47.866;-4.222;2022-12-11T04:41:11;100796.00;;;20.80
44429;BMP180;30134;47.866;-4.222;2022-12-11T04:43:38;100789.00;;;20.80
44429;BMP180;30134;47.866;-4.222;2022-12-11T04:46:10;100797.00;;;20.80
44429;BMP180;30134;47.866;-4.222;2022-12-11T04:48:37;100789.00;;;20.80
44429;BMP180;30134;47.866;-4.222;2022-12-11T04:51:03;100797.00;;;20.80
44429;BMP180;30134;47.866;-4.222;2022-12-11T04:53:29;100787.00;;;20.80
44429;BMP180;30134;47.866;-4.222;2022-12-11T04:55:58;100786.00;;;20.80
44429;BMP180;30134;47.866;-4.222;2022-12-11T04:58:24;100786.00;;;20.80
44429;BMP180;30134;47.866;-4.222;2022-12-11T05:00:57;100797.00;;;20.80
44429;BMP180;30134;47.866;-4.222;2022-12-11T05:03:23;100800.00;;;20.80
44429;BMP180;30134;47.866;-4.222;2022-12-11T05:05:52;100789.00;;;20.80
44429;BMP180;30134;47.866;-4.222;2022-12-11T05:08:19;100781.00;;;20.80
44429;BMP180;30134;47.866;-4.222;2022-12-11T05:10:54;100777.00;;;20.80
44429;BMP180;30134;47.866;-4.222;2022-12-11T05:13:20;100780.00;;;20.80
44429;BMP180;30134;47.866;-4.222;2022-12-11T05:15:46;100779.00;;;20.80
44429;BMP180;30134;47.866;-4.222;2022-12-11T05:18:11;100775.00;;;20.80
44429;BMP180;30134;47.866;-4.222;2022-12-11T05:20:37;100779.00;;;20.80
44429;BMP180;30134;47.866;-4.222;2022-12-11T05:23:03;100780.00;;;20.80
44429;BMP180;30134;47.866;-4.222;2022-12-11T05:25:29;100778.00;;;20.80
44429;BMP180;30134;47.866;-4.222;2022-12-11T05:27:54;100775.00;;;20.70
44429;BMP180;30134;47.866;-4.222;2022-12-11T05:30:20;100777.00;;;20.70
44429;BMP180;30134;47.866;-4.222;2022-12-11T05:32:46;100769.00;;;20.70
44429;BMP180;30134;47.866;-4.222;2022-12-11T05:35:12;100770.00;;;20.70
44429;BMP180;30134;47.866;-4.222;2022-12-11T05:37:38;100762.00;;;20.70
44429;BMP180;30134;47.866;-4.222;2022-12-11T05:40:04;100761.00;;;20.70
44429;BMP180;30134;47.866;-4.222;2022-12-11T05:42:32;100764.00;;;20.70
44429;BMP180;30134;47.866;-4.222;2022-12-11T05:44:58;100751.00;;;20.70
44429;BMP180;30134;47.866;-4.222;2022-12-11T05:47:23;100760.00;;;20.70
44429;BMP180;30134;47.866;-4.222;2022-12-11T05:49:50;100768.00;;;20.70
44429;BMP180;30134;47.866;-4.222;2022-12-11T05:52:16;100759.00;;;20.70
44429;BMP180;30134;47.866;-4.222;2022-12-11T05:54:42;100753.00;;;20.70
44429;BMP180;30134;47.866;-4.222;2022-12-11T05:57:08;100760.00;;;20.70
44429;BMP180;30134;47.866;-4.222;2022-12-11T05:59:34;100751.00;;;20.70
44429;BMP180;30134;47.866;-4.222;2022-12-11T06:02:00;100745.00;;;20.70
44429;BMP180;30134;47.866;-4.222;2022-12-11T06:04:25;100738.00;;;20.70
44429;BMP180;30134;47.866;-4.222;2022-12-11T06:06:53;100734.00;;;20.70
44429;BMP180;30134;47.866;-4.222;2022-12-11T06:09:19;100736.00;;;20.70
44429;BMP180;30134;47.866;-4.222;2022-12-11T06:11:45;100737.00;;;20.70
44429;BMP180;30134;47.866;-4.222;2022-12-11T06:14:11;100742.00;;;20.70
44429;BMP180;30134;47.866;-4.222;2022-12-11T06:16:38;100743.00;;;20.70
44429;BMP180;30134;47.866;-4.222;2022-12-11T06:19:05;100738.00;;;20.70
44429;BMP180;30134;47.866;-4.222;2022-12-11T06:21:32;100742.00;;;20.70
44429;BMP180;30134;47.866;-4.222;2022-12-11T06:23:59;100739.00;;;20.70
44429;BMP180;30134;47.866;-4.222;2022-12-11T06:26:26;100734.00;;;20.70
44429;BMP180;30134;47.866;-4.222;2022-12-11T06:28:52;100736.00;;;20.70
44429;BMP180;30134;47.866;-4.222;2022-12-11T06:31:18;100738.00;;;20.70
44429;BMP180;30134;47.866;-4.222;2022-12-11T06:33:44;100733.00;;;20.70
44429;BMP180;30134;47.866;-4.222;2022-12-11T06:36:12;100732.00;;;20.70
44429;BMP180;30134;47.866;-4.222;2022-12-11T06:38:39;100732.00;;;20.70
44429;BMP180;30134;47.866;-4.222;2022-12-11T06:41:05;100731.00;;;20.70
44429;BMP180;30134;47.866;-4.222;2022-12-11T06:43:35;100733.00;;;20.70
44429;BMP180;30134;47.866;-4.222;2022-12-11T06:46:06;100731.00;;;20.70
44429;BMP180;30134;47.866;-4.222;2022-12-11T06:48:32;100731.00;;;20.70
44429;BMP180;30134;47.866;-4.222;2022-12-11T06:50:58;100731.00;;;20.70
44429;BMP180;30134;47.866;-4.222;2022-12-11T06:53:24;100722.00;;;20.70
44429;BMP180;30134;47.866;-4.222;2022-12-11T06:55:50;100724.00;;;20.70
44429;BMP180;30134;47.866;-4.222;2022-12-11T06:58:16;100727.00;;;20.70
44429;BMP180;30134;47.866;-4.222;2022-12-11T07:00:42;100723.00;;;20.70
44429;BMP180;30134;47.866;-4.222;2022-12-11T07:03:08;100717.00;;;20.70
44429;BMP180;30134;47.866;-4.222;2022-12-11T07:05:34;100721.00;;;20.70
44429;BMP180;30134;47.866;-4.222;2022-12-11T07:08:00;100722.00;;;20.70
44429;BMP180;30134;47.866;-4.222;2022-12-11T07:10:26;100719.00;;;20.70
44429;BMP180;30134;47.866;-4.222;2022-12-11T07:12:52;100724.00;;;20.70
44429;BMP180;30134;47.866;-4.222;2022-12-11T07:15:19;100718.00;;;20.70
44429;BMP180;30134;47.866;-4.222;2022-12-11T07:17:44;100717.00;;;20.70
44429;BMP180;30134;47.866;-4.222;2022-12-11T07:20:11;100717.00;;;20.70
44429;BMP180;30134;47.866;-4.222;2022-12-11T07:22:36;100715.00;;;20.70
44429;BMP180;30134;47.866;-4.222;2022-12-11T07:25:03;100719.00;;;20.70
44429;BMP180;30134;47.866;-4.222;2022-12-11T07:27:29;100712.00;;;20.70
44429;BMP180;30134;47.866;-4.222;2022-12-11T07:29:54;100724.00;;;20.70
44429;BMP180;30134;47.866;-4.222;2022-12-11T07:32:21;100711.00;;;20.70
44429;BMP180;30134;47.866;-4.222;2022-12-11T07:34:50;100713.00;;;20.70
44429;BMP180;30134;47.866;-4.222;2022-12-11T07:37:16;100725.00;;;20.70
44429;BMP180;30134;47.866;-4.222;2022-12-11T07:39:42;100724.00;;;20.70
44429;BMP180;30134;47.866;-4.222;2022-12-11T07:42:07;100719.00;;;20.70
44429;BMP180;30134;47.866;-4.222;2022-12-11T07:44:33;100728.00;;;20.70
44429;BMP180;30134;47.866;-4.222;2022-12-11T07:46:59;100727.00;;;20.70
44429;BMP180;30134;47.866;-4.222;2022-12-11T07:49:25;100736.00;;;20.70
44429;BMP180;30134;47.866;-4.222;2022-12-11T07:51:51;100733.00;;;20.70
44429;BMP180;30134;47.866;-4.222;2022-12-11T07:54:16;100732.00;;;20.70
44429;BMP180;30134;47.866;-4.222;2022-12-11T07:56:43;100722.00;;;20.70
44429;BMP180;30134;47.866;-4.222;2022-12-11T07:59:10;100732.00;;;20.70
44429;BMP180;30134;47.866;-4.222;2022-12-11T08:01:37;100732.00;;;20.70
44429;BMP180;30134;47.866;-4.222;2022-12-11T08:04:05;100735.00;;;20.70
44429;BMP180;30134;47.866;-4.222;2022-12-11T08:06:33;100733.00;;;20.70
44429;BMP180;30134;47.866;-4.222;2022-12-11T08:09:00;100734.00;;;20.70
44429;BMP180;30134;47.866;-4.222;2022-12-11T08:11:27;100726.00;;;20.70
44429;BMP180;30134;47.866;-4.222;2022-12-11T08:13:53;100733.00;;;20.70
44429;BMP180;30134;47.866;-4.222;2022-12-11T08:16:19;100727.00;;;20.70
44429;BMP180;30134;47.866;-4.222;2022-12-11T08:18:46;100730.00;;;20.70
44429;BMP180;30134;47.866;-4.222;2022-12-11T08:21:14;100729.00;;;20.70
44429;BMP180;30134;47.866;-4.222;2022-12-11T08:23:40;100735.00;;;20.70
44429;BMP180;30134;47.866;-4.222;2022-12-11T08:26:08;100748.00;;;20.60
44429;BMP180;30134;47.866;-4.222;2022-12-11T08:28:35;100744.00;;;20.60
44429;BMP180;30134;47.866;-4.222;2022-12-11T08:31:03;100744.00;;;20.70
44429;BMP180;30134;47.866;-4.222;2022-12-11T08:33:30;100738.00;;;20.70
44429;BMP180;30134;47.866;-4.222;2022-12-11T08:35:56;100739.00;;;20.70
44429;BMP180;30134;47.866;-4.222;2022-12-11T08:38:22;100740.00;;;20.70
44429;BMP180;30134;47.866;-4.222;2022-12-11T08:40:47;100740.00;;;20.70
44429;BMP180;30134;47.866;-4.222;2022-12-11T08:43:14;100738.00;;;20.70
44429;BMP180;30134;47.866;-4.222;2022-12-11T08:45:40;100739.00;;;20.70
44429;BMP180;30134;47.866;-4.222;2022-12-11T08:48:06;100734.00;;;20.70
44429;BMP180;30134;47.866;-4.222;2022-12-11T08:50:31;100735.00;;;20.70
44429;BMP180;30134;47.866;-4.222;2022-12-11T08:52:57;100732.00;;;20.70
44429;BMP180;30134;47.866;-4.222;2022-12-11T08:55:23;100739.00;;;20.70
44429;BMP180;30134;47.866;-4.222;2022-12-11T08:57:49;100741.00;;;20.60
44429;BMP180;30134;47.866;-4.222;2022-12-11T09:00:15;100747.00;;;20.70
44429;BMP180;30134;47.866;-4.222;2022-12-11T09:02:43;100752.00;;;20.70
44429;BMP180;30134;47.866;-4.222;2022-12-11T09:05:08;100745.00;;;20.60
44429;BMP180;30134;47.866;-4.222;2022-12-11T09:07:35;100756.00;;;20.60
44429;BMP180;30134;47.866;-4.222;2022-12-11T09:10:02;100754.00;;;20.70
44429;BMP180;30134;47.866;-4.222;2022-12-11T09:12:28;100755.00;;;20.70
44429;BMP180;30134;47.866;-4.222;2022-12-11T09:14:54;100758.00;;;20.70
44429;BMP180;30134;47.866;-4.222;2022-12-11T09:17:20;100756.00;;;20.70
44429;BMP180;30134;47.866;-4.222;2022-12-11T09:19:46;100751.00;;;20.70
44429;BMP180;30134;47.866;-4.222;2022-12-11T09:22:12;100755.00;;;20.60
44429;BMP180;30134;47.866;-4.222;2022-12-11T09:24:38;100744.00;;;20.60
44429;BMP180;30134;47.866;-4.222;2022-12-11T09:27:11;100753.00;;;20.70
44429;BMP180;30134;47.866;-4.222;2022-12-11T09:29:37;100740.00;;;20.70
44429;BMP180;30134;47.866;-4.222;2022-12-11T09:32:04;100742.00;;;20.70
44429;BMP180;30134;47.866;-4.222;2022-12-11T09:34:29;100745.00;;;20.70
44429;BMP180;30134;47.866;-4.222;2022-12-11T09:36:56;100741.00;;;20.70
44429;BMP180;30134;47.866;-4.222;2022-12-11T09:39:22;100742.00;;;20.60
44429;BMP180;30134;47.866;-4.222;2022-12-11T09:41:59;100740.00;;;20.60
44429;BMP180;30134;47.866;-4.222;2022-12-11T09:44:46;100755.00;;;20.70
44429;BMP180;30134;47.866;-4.222;2022-12-11T09:47:34;100758.00;;;20.60
44429;BMP180;30134;47.866;-4.222;2022-12-11T09:50:12;100760.00;;;20.60
44429;BMP180;30134;47.866;-4.222;2022-12-11T09:53:31;100763.00;;;20.70
44429;BMP180;30134;47.866;-4.222;2022-12-11T09:56:03;100769.00;;;20.70
44429;BMP180;30134;47.866;-4.222;2022-12-11T09:59:12;100770.00;;;20.70
44429;BMP180;30134;47.866;-4.222;2022-12-11T10:02:02;100773.00;;;20.60
44429;BMP180;30134;47.866;-4.222;2022-12-11T10:10:26;100779.00;;;20.60
44429;BMP180;30134;47.866;-4.222;2022-12-11T10:13:10;100779.00;;;20.70
44429;BMP180;30134;47.866;-4.222;2022-12-11T10:15:58;100783.00;;;20.70
44429;BMP180;30134;47.866;-4.222;2022-12-11T10:18:26;100784.00;;;20.60
44429;BMP180;30134;47.866;-4.222;2022-12-11T10:20:53;100785.00;;;20.60
44429;BMP180;30134;47.866;-4.222;2022-12-11T10:23:21;100786.00;;;20.60
44429;BMP180;30134;47.866;-4.222;2022-12-11T10:26:16;100782.00;;;20.70
44429;BMP180;30134;47.866;-4.222;2022-12-11T10:28:42;100783.00;;;20.60
44429;BMP180;30134;47.866;-4.222;2022-12-11T10:36:30;100780.00;;;20.70
44429;BMP180;30134;47.866;-4.222;2022-12-11T10:38:56;100790.00;;;20.70
44429;BMP180;30134;47.866;-4.222;2022-12-11T10:41:41;100781.00;;;20.70
44429;BMP180;30134;47.866;-4.222;2022-12-11T10:44:21;100780.00;;;20.60
44429;BMP180;30134;47.866;-4.222;2022-12-11T10:46:59;100777.00;;;20.60
44429;BMP180;30134;47.866;-4.222;2022-12-11T10:49:28;100775.00;;;20.70
44429;BMP180;30134;47.866;-4.222;2022-12-11T10:51:54;100779.00;;;20.60
44429;BMP180;30134;47.866;-4.222;2022-12-11T10:56:53;100775.00;;;20.60
44429;BMP180;30134;47.866;-4.222;2022-12-11T11:02:32;100768.00;;;20.70
44429;BMP180;30134;47.866;-4.222;2022-12-11T11:05:02;100757.00;;;20.60
44429;BMP180;30134;47.866;-4.222;2022-12-11T11:07:35;100757.00;;;20.60
44429;BMP180;30134;47.866;-4.222;2022-12-11T11:10:05;100760.00;;;20.70
44429;BMP180;30134;47.866;-4.222;2022-12-11T11:12:46;100751.00;;;20.70
44429;BMP180;30134;47.866;-4.222;2022-12-11T11:15:19;100753.00;;;20.70
44429;BMP180;30134;47.866;-4.222;2022-12-11T11:17:52;100745.00;;;20.70
44429;BMP180;30134;47.866;-4.222;2022-12-11T11:20:20;100753.00;;;20.70
44429;BMP180;30134;47.866;-4.222;2022-12-11T11:22:48;100749.00;;;20.70
44429;BMP180;30134;47.866;-4.222;2022-12-11T11:25:23;100750.00;;;20.70
44429;BMP180;30134;47.866;-4.222;2022-12-11T11:27:54;100751.00;;;20.70
44429;BMP180;30134;47.866;-4.222;2022-12-11T11:30:25;100753.00;;;20.70
44429;BMP180;30134;47.866;-4.222;2022-12-11T11:33:03;100750.00;;;20.70
44429;BMP180;30134;47.866;-4.222;2022-12-11T11:35:30;100751.00;;;20.70
44429;BMP180;30134;47.866;-4.222;2022-12-11T11:40:46;100756.00;;;20.70
44429;BMP180;30134;47.866;-4.222;2022-12-11T11:46:09;100749.00;;;20.70
44429;BMP180;30134;47.866;-4.222;2022-12-11T11:53:54;100757.00;;;20.70
44429;BMP180;30134;47.866;-4.222;2022-12-11T11:56:26;100760.00;;;20.70
44429;BMP180;30134;47.866;-4.222;2022-12-11T11:59:10;100760.00;;;20.70
44429;BMP180;30134;47.866;-4.222;2022-12-11T12:01:41;100762.00;;;20.70
44429;BMP180;30134;47.866;-4.222;2022-12-11T12:04:08;100762.00;;;20.70
44429;BMP180;30134;47.866;-4.222;2022-12-11T12:15:08;100756.00;;;20.70
44429;BMP180;30134;47.866;-4.222;2022-12-11T12:26:16;100738.00;;;20.70
44429;BMP180;30134;47.866;-4.222;2022-12-11T12:31:13;100730.00;;;20.70
44429;BMP180;30134;47.866;-4.222;2022-12-11T12:45:48;100733.00;;;20.70
44429;BMP180;30134;47.866;-4.222;2022-12-11T12:48:19;100729.00;;;20.70
44429;BMP180;30134;47.866;-4.222;2022-12-11T12:50:47;100722.00;;;20.70
44429;BMP180;30134;47.866;-4.222;2022-12-11T12:53:24;100721.00;;;20.70
44429;BMP180;30134;47.866;-4.222;2022-12-11T12:55:51;100727.00;;;20.70
44429;BMP180;30134;47.866;-4.222;2022-12-11T13:03:51;100708.00;;;20.80
44429;BMP180;30134;47.866;-4.222;2022-12-11T13:06:42;100709.00;;;20.80
44429;BMP180;30134;47.866;-4.222;2022-12-11T13:09:18;100711.00;;;20.80
44429;BMP180;30134;47.866;-4.222;2022-12-11T13:11:49;100715.00;;;20.80
44429;BMP180;30134;47.866;-4.222;2022-12-11T13:16:50;100710.00;;;20.80
44429;BMP180;30134;47.866;-4.222;2022-12-11T13:27:24;100715.00;;;20.80
44429;BMP180;30134;47.866;-4.222;2022-12-11T13:29:50;100712.00;;;20.80
44429;BMP180;30134;47.866;-4.222;2022-12-11T13:34:54;100711.00;;;20.80
44429;BMP180;30134;47.866;-4.222;2022-12-11T13:37:44;100710.00;;;20.80
44429;BMP180;30134;47.866;-4.222;2022-12-11T13:40:19;100710.00;;;20.80
44429;BMP180;30134;47.866;-4.222;2022-12-11T13:42:58;100705.00;;;20.80
44429;BMP180;30134;47.866;-4.222;2022-12-11T13:45:32;100701.00;;;20.80
44429;BMP180;30134;47.866;-4.222;2022-12-11T13:48:00;100707.00;;;20.90
44429;BMP180;30134;47.866;-4.222;2022-12-11T13:50:33;100709.00;;;20.90
44429;BMP180;30134;47.866;-4.222;2022-12-11T13:53:00;100705.00;;;20.90
44429;BMP180;30134;47.866;-4.222;2022-12-11T13:55:35;100707.00;;;20.90
44429;BMP180;30134;47.866;-4.222;2022-12-11T13:58:01;100706.00;;;20.90
44429;BMP180;30134;47.866;-4.222;2022-12-11T14:00:29;100717.00;;;20.90
44429;BMP180;30134;47.866;-4.222;2022-12-11T14:02:58;100711.00;;;20.90
44429;BMP180;30134;47.866;-4.222;2022-12-11T14:05:26;100711.00;;;20.90
44429;BMP180;30134;47.866;-4.222;2022-12-11T14:07:55;100708.00;;;20.90
44429;BMP180;30134;47.866;-4.222;2022-12-11T14:10:23;100715.00;;;20.90
44429;BMP180;30134;47.866;-4.222;2022-12-11T14:12:59;100706.00;;;20.90
44429;BMP180;30134;47.866;-4.222;2022-12-11T14:15:27;100707.00;;;20.90
44429;BMP180;30134;47.866;-4.222;2022-12-11T14:17:53;100709.00;;;20.90
44429;BMP180;30134;47.866;-4.222;2022-12-11T14:20:24;100711.00;;;20.90
44429;BMP180;30134;47.866;-4.222;2022-12-11T14:23:22;100713.00;;;20.90
44429;BMP180;30134;47.866;-4.222;2022-12-11T14:26:00;100713.00;;;20.90
44429;BMP180;30134;47.866;-4.222;2022-12-11T14:28:39;100711.00;;;20.90
44429;BMP180;30134;47.866;-4.222;2022-12-11T14:31:06;100713.00;;;20.90
44429;BMP180;30134;47.866;-4.222;2022-12-11T14:33:41;100714.00;;;20.90
44429;BMP180;30134;47.866;-4.222;2022-12-11T14:36:08;100708.00;;;20.90
44429;BMP180;30134;47.866;-4.222;2022-12-11T14:38:36;100709.00;;;20.90
44429;BMP180;30134;47.866;-4.222;2022-12-11T14:41:07;100706.00;;;20.90
44429;BMP180;30134;47.866;-4.222;2022-12-11T14:43:41;100712.00;;;20.90
44429;BMP180;30134;47.866;-4.222;2022-12-11T14:46:16;100710.00;;;20.90
44429;BMP180;30134;47.866;-4.222;2022-12-11T14:48:46;100712.00;;;20.90
44429;BMP180;30134;47.866;-4.222;2022-12-11T14:51:15;100706.00;;;20.90
44429;BMP180;30134;47.866;-4.222;2022-12-11T14:53:49;100702.00;;;20.90
44429;BMP180;30134;47.866;-4.222;2022-12-11T14:56:19;100710.00;;;20.90
44429;BMP180;30134;47.866;-4.222;2022-12-11T14:59:04;100714.00;;;20.90
44429;BMP180;30134;47.866;-4.222;2022-12-11T15:01:35;100699.00;;;20.90
44429;BMP180;30134;47.866;-4.222;2022-12-11T15:04:02;100698.00;;;20.90
44429;BMP180;30134;47.866;-4.222;2022-12-11T15:06:30;100709.00;;;20.90
44429;BMP180;30134;47.866;-4.222;2022-12-11T15:09:09;100710.00;;;20.90
44429;BMP180;30134;47.866;-4.222;2022-12-11T15:11:41;100721.00;;;20.90
44429;BMP180;30134;47.866;-4.222;2022-12-11T15:14:08;100721.00;;;20.90
44429;BMP180;30134;47.866;-4.222;2022-12-11T15:16:38;100724.00;;;20.90
44429;BMP180;30134;47.866;-4.222;2022-12-11T15:19:05;100725.00;;;20.90
44429;BMP180;30134;47.866;-4.222;2022-12-11T15:21:33;100728.00;;;20.90
44429;BMP180;30134;47.866;-4.222;2022-12-11T15:24:01;100727.00;;;20.90
44429;BMP180;30134;47.866;-4.222;2022-12-11T15:28:59;100723.00;;;20.90
44429;BMP180;30134;47.866;-4.222;2022-12-11T15:31:28;100722.00;;;20.90
44429;BMP180;30134;47.866;-4.222;2022-12-11T15:33:55;100718.00;;;20.90